createdAt,value
2018-10-07T00:01:36.801Z,9.57
2018-10-07T00:04:06.864Z,10.90
2018-10-07T00:06:39.269Z,11.10
2018-10-07T00:09:09.666Z,10.53
2018-10-07T00:11:39.029Z,11.10
2018-10-07T00:14:08.912Z,10.20
2018-10-07T00:16:39.216Z,11.33
2018-10-07T00:19:08.569Z,11.40
2018-10-07T00:21:37.817Z,9.67
2018-10-07T00:24:07.005Z,10.40
2018-10-07T00:26:37.541Z,10.27
2018-10-07T00:29:07.069Z,10.43
2018-10-07T00:31:40.617Z,10.80
2018-10-07T00:34:08.962Z,10.87
2018-10-07T00:36:39.253Z,11.03
2018-10-07T00:39:10.594Z,10.70
2018-10-07T00:41:39.948Z,10.10
2018-10-07T00:44:09.430Z,10.97
2018-10-07T00:46:38.786Z,12.30
2018-10-07T00:49:07.793Z,12.17
2018-10-07T00:51:37.973Z,12.27
2018-10-07T00:54:07.409Z,11.17
2018-10-07T00:56:36.663Z,11.40
2018-10-07T00:59:07.991Z,11.40
2018-10-07T01:01:38.129Z,11.00
2018-10-07T01:04:08.660Z,12.03
2018-10-07T01:06:38.908Z,11.10
2018-10-07T01:09:09.840Z,11.73
2018-10-07T01:11:39.406Z,11.87
2018-10-07T01:14:09.080Z,12.03
2018-10-07T01:16:39.278Z,12.27
2018-10-07T01:19:10.101Z,12.30
2018-10-07T01:21:39.336Z,12.20
2018-10-07T01:24:08.989Z,12.43
2018-10-07T01:26:39.558Z,12.70
2018-10-07T01:29:09.287Z,11.37
2018-10-07T01:31:38.590Z,13.20
2018-10-07T01:34:10.001Z,12.40
2018-10-07T01:36:39.418Z,11.30
2018-10-07T01:39:09.216Z,12.70
2018-10-07T01:41:38.473Z,12.37
2018-10-07T01:44:07.860Z,12.97
2018-10-07T01:46:39.022Z,12.83
2018-10-07T01:49:08.978Z,12.33
2018-10-07T01:51:39.585Z,11.83
2018-10-07T01:54:09.792Z,12.63
2018-10-07T01:56:39.005Z,12.90
2018-10-07T01:59:10.120Z,13.50
2018-10-07T02:01:39.785Z,12.07
2018-10-07T02:04:08.989Z,12.73
2018-10-07T02:06:39.677Z,11.77
2018-10-07T02:09:10.793Z,12.73
2018-10-07T02:11:40.150Z,11.87
2018-10-07T02:14:09.385Z,12.70
2018-10-07T02:16:40.125Z,12.20
2018-10-07T02:19:09.335Z,11.70
2018-10-07T02:21:39.981Z,11.23
2018-10-07T02:24:09.081Z,11.93
2018-10-07T02:26:39.281Z,10.90
2018-10-07T02:29:10.152Z,12.53
2018-10-07T02:31:39.193Z,11.97
2018-10-07T02:34:08.721Z,13.07
2018-10-07T02:36:38.413Z,13.20
2018-10-07T02:39:09.034Z,12.67
2018-10-07T02:41:39.809Z,11.00
2018-10-07T02:44:08.632Z,12.73
2018-10-07T02:46:38.342Z,12.10
2018-10-07T02:49:08.849Z,12.60
2018-10-07T02:51:37.796Z,13.70
2018-10-07T02:54:07.976Z,13.20
2018-10-07T02:56:39.256Z,11.77
2018-10-07T02:59:08.473Z,13.20
2018-10-07T03:01:37.454Z,11.17
2018-10-07T03:04:07.093Z,12.53
2018-10-07T03:06:36.441Z,13.40
2018-10-07T03:09:07.871Z,12.77
2018-10-07T03:11:38.041Z,14.03
2018-10-07T03:14:08.923Z,14.90
2018-10-07T03:16:38.205Z,12.50
2018-10-07T03:19:07.191Z,11.53
2018-10-07T03:21:37.258Z,12.00
2018-10-07T03:24:05.666Z,11.47
2018-10-07T03:26:34.013Z,13.13
2018-10-07T03:29:02.416Z,13.13
2018-10-07T03:31:30.781Z,13.77
2018-10-07T03:33:59.113Z,12.53
2018-10-07T03:36:27.462Z,13.30
2018-10-07T03:38:55.797Z,12.53
2018-10-07T03:41:24.146Z,12.40
2018-10-07T03:43:52.485Z,12.00
2018-10-07T03:46:20.825Z,13.30
2018-10-07T03:48:49.178Z,12.37
2018-10-07T03:51:17.526Z,12.00
2018-10-07T03:53:45.875Z,12.50
2018-10-07T03:56:15.051Z,13.03
2018-10-07T03:58:43.388Z,14.07
2018-10-07T04:01:11.741Z,12.50
2018-10-07T04:03:40.090Z,13.27
2018-10-07T04:06:08.840Z,14.17
2018-10-07T04:08:38.233Z,12.80
2018-10-07T04:11:08.427Z,14.10
2018-10-07T04:13:37.995Z,13.17
2018-10-07T04:16:07.025Z,13.50
2018-10-07T04:18:36.052Z,13.47
2018-10-07T04:21:04.393Z,13.00
2018-10-07T04:23:32.757Z,13.10
2018-10-07T04:26:01.101Z,12.27
2018-10-07T04:28:29.442Z,13.23
2018-10-07T04:30:57.782Z,11.73
2018-10-07T04:33:26.120Z,11.60
2018-10-07T04:35:54.463Z,13.43
2018-10-07T04:38:22.797Z,13.50
2018-10-07T04:40:51.179Z,12.13
2018-10-07T04:43:19.519Z,11.93
2018-10-07T04:45:47.859Z,12.27
2018-10-07T04:48:17.057Z,12.80
2018-10-07T04:50:45.402Z,13.70
2018-10-07T04:53:13.752Z,12.17
2018-10-07T04:55:42.093Z,13.67
2018-10-07T04:58:10.428Z,13.37
2018-10-07T05:00:39.408Z,12.70
2018-10-07T05:03:08.820Z,12.73
2018-10-07T05:05:38.231Z,12.90
2018-10-07T05:08:09.409Z,12.10
2018-10-07T05:10:53.509Z,13.00
2018-10-07T05:13:24.933Z,11.80
2018-10-07T05:15:55.722Z,13.40
2018-10-07T05:18:24.474Z,13.63
2018-10-07T05:20:54.260Z,13.50
2018-10-07T05:23:22.762Z,13.00
2018-10-07T05:25:52.114Z,13.77
2018-10-07T05:28:20.453Z,12.40
2018-10-07T05:30:48.783Z,12.03
2018-10-07T05:33:17.214Z,12.67
2018-10-07T05:35:45.533Z,13.67
2018-10-07T05:38:13.917Z,15.10
2018-10-07T05:40:42.258Z,15.63
2018-10-07T05:43:11.681Z,14.13
2018-10-07T05:45:40.031Z,15.00
2018-10-07T05:48:09.561Z,15.00
2018-10-07T05:50:39.745Z,13.10
2018-10-07T05:53:10.043Z,12.70
2018-10-07T05:55:39.449Z,13.63
2018-10-07T05:58:10.259Z,13.43
2018-10-07T06:00:41.007Z,12.63
2018-10-07T06:05:26.820Z,22.70
2018-10-07T06:07:56.189Z,31.43
2018-10-07T06:10:24.610Z,18.37
2018-10-07T06:12:52.957Z,15.40
2018-10-07T06:15:33.085Z,15.17
2018-10-07T06:18:01.486Z,15.80
2018-10-07T06:20:31.421Z,14.40
2018-10-07T06:23:00.597Z,15.33
2018-10-07T06:25:29.817Z,14.40
2018-10-07T06:27:59.142Z,18.10
2018-10-07T06:30:27.494Z,14.50
2018-10-07T06:32:55.845Z,18.17
2018-10-07T06:35:25.021Z,16.37
2018-10-07T06:37:54.820Z,17.77
2018-10-07T06:40:23.262Z,16.40
2018-10-07T06:42:51.613Z,19.47
2018-10-07T06:45:20.107Z,15.27
2018-10-07T06:47:48.576Z,16.43
2018-10-07T06:50:17.064Z,17.27
2018-10-07T06:52:45.393Z,18.33
2018-10-07T06:55:14.669Z,18.97
2018-10-07T06:57:43.922Z,17.97
2018-10-07T07:00:12.271Z,18.27
2018-10-07T07:02:42.025Z,17.87
2018-10-07T07:05:12.376Z,18.73
2018-10-07T07:07:41.838Z,19.30
2018-10-07T07:10:12.133Z,20.60
2018-10-07T07:12:42.041Z,22.80
2018-10-07T07:15:12.612Z,22.40
2018-10-07T07:17:41.829Z,22.37
2018-10-07T07:20:11.145Z,26.40
2018-10-07T07:22:41.582Z,26.10
2018-10-07T07:25:10.273Z,27.07
2018-10-07T07:27:40.341Z,27.10
2018-10-07T07:30:10.437Z,26.70
2018-10-07T07:32:40.542Z,25.40
2018-10-07T07:35:10.450Z,25.97
2018-10-07T07:37:39.237Z,25.60
2018-10-07T07:40:09.721Z,24.00
2018-10-07T07:42:39.154Z,24.83
2018-10-07T07:45:08.373Z,39.73
2018-10-07T07:47:39.274Z,28.10
2018-10-07T07:50:09.417Z,24.33
2018-10-07T07:52:39.092Z,24.50
2018-10-07T07:55:08.221Z,27.10
2018-10-07T07:57:37.193Z,23.60
2018-10-07T08:00:05.889Z,25.17
2018-10-07T08:02:34.229Z,25.63
2018-10-07T08:05:02.586Z,24.93
2018-10-07T08:07:32.069Z,24.77
2018-10-07T08:10:00.417Z,23.03
2018-10-07T08:12:29.822Z,22.50
2018-10-07T08:14:59.056Z,18.67
2018-10-07T08:17:28.476Z,19.40
2018-10-07T08:19:56.801Z,17.80
2018-10-07T08:22:26.233Z,15.47
2018-10-07T08:24:54.938Z,15.40
2018-10-07T08:27:23.360Z,12.80
2018-10-07T08:29:51.694Z,12.70
2018-10-07T08:32:20.118Z,13.17
2018-10-07T08:34:48.462Z,10.30
2018-10-07T08:37:17.865Z,12.50
2018-10-07T08:39:46.325Z,10.40
2018-10-07T08:42:14.712Z,11.13
2018-10-07T08:44:43.084Z,10.37
2018-10-07T08:47:12.025Z,9.03
2018-10-07T08:49:41.868Z,8.90
2018-10-07T08:52:10.765Z,7.27
2018-10-07T08:54:40.300Z,7.60
2018-10-07T08:57:08.697Z,7.30
2018-10-07T08:59:37.957Z,6.50
2018-10-07T09:02:06.804Z,6.80
2018-10-07T09:04:35.981Z,5.97
2018-10-07T09:07:04.343Z,6.10
2018-10-07T09:09:32.727Z,5.90
2018-10-07T09:12:01.075Z,6.10
2018-10-07T09:14:29.467Z,5.90
2018-10-07T09:16:57.825Z,5.87
2018-10-07T09:19:26.178Z,5.20
2018-10-07T09:21:54.526Z,4.80
2018-10-07T09:24:22.866Z,3.97
2018-10-07T09:26:51.307Z,42.17
2018-10-07T09:29:20.703Z,12.23
2018-10-07T09:31:49.066Z,7.13
2018-10-07T09:34:17.399Z,4.30
2018-10-07T09:36:45.850Z,12.60
2018-10-07T09:39:14.241Z,2.73
2018-10-07T09:41:42.569Z,4.17
2018-10-07T09:44:11.428Z,2.40
2018-10-07T09:46:39.794Z,2.90
2018-10-07T09:49:09.966Z,2.40
2018-10-07T09:51:41.213Z,2.73
2018-10-07T09:54:10.383Z,1.90
2018-10-07T09:56:38.805Z,2.40
2018-10-07T09:59:07.857Z,2.53
2018-10-07T10:01:38.072Z,1.60
2018-10-07T10:04:08.310Z,1.40
2018-10-07T10:06:37.381Z,1.60
2018-10-07T10:09:07.894Z,1.67
2018-10-07T10:11:36.814Z,4.70
2018-10-07T10:14:06.115Z,4.23
2018-10-07T10:17:10.356Z,1.30
2018-10-07T10:19:52.426Z,1.17
2018-10-07T10:22:26.777Z,1.50
2018-10-07T10:25:02.885Z,1.30
2018-10-07T10:27:46.402Z,2.97
2018-10-07T10:30:25.997Z,1.70
2018-10-07T10:33:00.638Z,2.10
2018-10-07T10:35:35.549Z,1.23
2018-10-07T10:38:17.481Z,1.63
2018-10-07T10:41:07.709Z,1.37
2018-10-07T10:43:43.574Z,1.60
2018-10-07T10:46:14.917Z,1.30
2018-10-07T10:50:59.077Z,1.60
2018-10-07T10:53:49.585Z,1.10
2018-10-07T10:56:23.181Z,1.27
2018-10-07T11:01:08.496Z,1.17
2018-10-07T11:04:20.382Z,2.70
2018-10-07T11:07:04.050Z,1.13
2018-10-07T11:11:46.293Z,1.23
2018-10-07T11:15:50.716Z,0.90
2018-10-07T11:18:22.001Z,1.17
2018-10-07T11:23:05.835Z,1.00
2018-10-07T11:25:43.913Z,1.50
2018-10-07T11:28:48.022Z,1.23
2018-10-07T11:31:41.738Z,1.50
2018-10-07T11:35:20.073Z,1.00
2018-10-07T11:37:54.010Z,1.70
2018-10-07T11:40:33.853Z,1.77
2018-10-07T11:43:22.149Z,1.23
2018-10-07T11:45:57.890Z,1.30
2018-10-07T11:48:37.665Z,1.00
2018-10-07T11:51:20.789Z,1.10
2018-10-07T11:53:54.924Z,0.90
2018-10-07T11:56:23.265Z,1.10
2018-10-07T11:58:51.620Z,0.93
2018-10-07T12:01:19.988Z,0.80
2018-10-07T12:03:48.310Z,1.50
2018-10-07T12:06:16.651Z,1.20
2018-10-07T12:08:44.992Z,1.67
2018-10-07T12:11:13.379Z,0.87
2018-10-07T12:13:42.374Z,1.93
2018-10-07T12:16:11.522Z,1.40
2018-10-07T12:18:39.892Z,1.33
2018-10-07T12:21:10.039Z,1.97
2018-10-07T12:23:40.187Z,1.50
2018-10-07T12:26:10.154Z,1.40
2018-10-07T12:28:39.298Z,1.47
2018-10-07T12:31:09.609Z,1.10
2018-10-07T12:33:39.934Z,1.20
2018-10-07T12:36:10.678Z,1.77
2018-10-07T12:38:39.621Z,1.53
2018-10-07T12:41:10.430Z,1.40
2018-10-07T12:43:38.761Z,1.60
2018-10-07T12:46:09.833Z,1.90
2018-10-07T12:48:38.333Z,0.90
2018-10-07T12:51:07.706Z,0.93
2018-10-07T12:53:37.897Z,0.80
2018-10-07T12:56:08.013Z,0.83
2018-10-07T12:58:36.868Z,1.10
2018-10-07T13:01:05.842Z,0.90
2018-10-07T13:03:34.182Z,0.90
2018-10-07T13:06:03.384Z,1.10
2018-10-07T13:08:31.814Z,1.00
2018-10-07T13:11:01.014Z,0.80
2018-10-07T13:13:29.706Z,1.40
2018-10-07T13:15:58.048Z,0.93
2018-10-07T13:18:26.421Z,0.93
2018-10-07T13:20:55.801Z,0.93
2018-10-07T13:23:24.141Z,0.83
2018-10-07T13:25:52.737Z,0.90
2018-10-07T13:28:21.100Z,0.70
2018-10-07T13:30:49.489Z,0.90
2018-10-07T13:33:17.841Z,0.70
2018-10-07T13:35:47.125Z,0.90
2018-10-07T13:38:16.218Z,0.80
2018-10-07T13:40:45.552Z,0.90
2018-10-07T13:43:13.890Z,0.90
2018-10-07T13:45:42.217Z,1.13
2018-10-07T13:48:11.489Z,1.10
2018-10-07T13:50:39.822Z,1.40
2018-10-07T13:53:09.763Z,1.50
2018-10-07T13:55:39.235Z,1.13
2018-10-07T13:58:10.173Z,0.80
2018-10-07T14:00:39.884Z,1.90
2018-10-07T14:03:08.243Z,0.60
2018-10-07T14:05:36.977Z,1.17
2018-10-07T14:08:05.955Z,1.90
2018-10-07T14:10:34.321Z,3.50
2018-10-07T14:13:02.770Z,3.27
2018-10-07T14:15:31.104Z,1.73
2018-10-07T14:17:59.477Z,1.20
2018-10-07T14:20:27.828Z,1.20
2018-10-07T14:22:56.212Z,0.80
2018-10-07T14:25:25.217Z,0.70
2018-10-07T14:27:53.600Z,0.70
2018-10-07T14:30:22.921Z,0.90
2018-10-07T14:32:52.310Z,0.80
2018-10-07T14:35:21.561Z,0.90
2018-10-07T14:37:49.946Z,0.67
2018-10-07T14:40:19.280Z,0.70
2018-10-07T14:42:48.609Z,0.83
2018-10-07T14:45:17.838Z,1.00
2018-10-07T14:47:46.175Z,0.87
2018-10-07T14:50:14.817Z,0.80
2018-10-07T14:52:44.250Z,0.77
2018-10-07T14:55:12.758Z,1.00
2018-10-07T14:57:42.057Z,0.90
2018-10-07T15:00:11.425Z,1.07
2018-10-07T15:02:40.257Z,0.90
2018-10-07T15:05:10.384Z,0.60
2018-10-07T15:07:39.869Z,1.17
2018-10-07T15:10:11.027Z,0.90
2018-10-07T15:12:41.593Z,1.20
2018-10-07T15:15:10.633Z,1.20
2018-10-07T15:17:40.037Z,1.40
2018-10-07T15:20:10.304Z,2.40
2018-10-07T15:22:40.356Z,0.70
2018-10-07T15:25:09.314Z,0.90
2018-10-07T15:27:40.374Z,0.83
2018-10-07T15:30:10.680Z,0.90
2018-10-07T15:32:41.312Z,0.90
2018-10-07T15:35:11.760Z,1.30
2018-10-07T15:37:41.969Z,1.20
2018-10-07T15:40:12.764Z,0.90
2018-10-07T15:42:42.137Z,0.87
2018-10-07T15:45:12.295Z,1.03
2018-10-07T15:47:41.379Z,0.80
2018-10-07T15:50:11.737Z,0.70
2018-10-07T15:52:41.194Z,0.97
2018-10-07T15:55:11.190Z,1.23
2018-10-07T15:57:40.197Z,1.53
2018-10-07T16:00:10.902Z,2.47
2018-10-07T16:02:39.444Z,4.23
2018-10-07T16:05:09.282Z,2.13
2018-10-07T16:07:39.266Z,2.07
2018-10-07T16:10:08.756Z,1.30
2018-10-07T16:12:37.084Z,1.60
2018-10-07T16:15:06.995Z,2.50
2018-10-07T16:17:36.949Z,1.80
2018-10-07T16:20:06.047Z,1.60
2018-10-07T16:22:34.411Z,2.43
2018-10-07T16:25:03.795Z,2.00
2018-10-07T16:27:32.559Z,2.90
2018-10-07T16:30:00.893Z,2.80
2018-10-07T16:32:30.274Z,3.77
2018-10-07T16:34:59.472Z,3.67
2018-10-07T16:37:27.965Z,5.63
2018-10-07T16:39:56.311Z,10.27
2018-10-07T16:42:24.647Z,6.50
2018-10-07T16:44:53.885Z,6.23
2018-10-07T16:47:22.243Z,4.27
2018-10-07T16:49:51.597Z,4.17
2018-10-07T16:52:20.833Z,3.17
2018-10-07T16:54:50.075Z,4.83
2018-10-07T16:57:19.300Z,5.80
2018-10-07T16:59:48.721Z,2.70
2018-10-07T17:02:17.057Z,3.10
2018-10-07T17:04:46.434Z,8.30
2018-10-07T17:07:14.786Z,7.40
2018-10-07T17:09:44.210Z,6.53
2018-10-07T17:12:12.584Z,5.97
2018-10-07T17:14:41.706Z,5.10
2018-10-07T17:17:11.747Z,5.70
2018-10-07T17:19:41.969Z,3.20
2018-10-07T17:22:11.257Z,3.60
2018-10-07T17:24:40.425Z,4.73
2018-10-07T17:27:08.813Z,6.87
2018-10-07T17:29:37.942Z,5.30
2018-10-07T17:32:07.523Z,4.70
2018-10-07T17:34:36.541Z,4.40
2018-10-07T17:37:04.881Z,5.43
2018-10-07T17:39:33.252Z,5.43
2018-10-07T17:42:02.681Z,7.30
2018-10-07T17:44:31.064Z,8.00
2018-10-07T17:46:59.404Z,7.03
2018-10-07T17:49:27.799Z,4.10
2018-10-07T17:51:57.147Z,3.20
2018-10-07T17:54:26.421Z,2.50
2018-10-07T17:56:55.761Z,4.33
2018-10-07T17:59:25.021Z,10.90
2018-10-07T18:01:54.573Z,11.03
2018-10-07T18:04:23.952Z,7.73
2018-10-07T18:06:53.321Z,6.93
2018-10-07T18:09:21.758Z,5.20
2018-10-07T18:11:50.154Z,4.30
2018-10-07T18:14:18.484Z,4.00
2018-10-07T18:16:46.821Z,4.33
2018-10-07T18:19:15.165Z,7.33
2018-10-07T18:21:43.507Z,6.80
2018-10-07T18:24:12.257Z,7.30
2018-10-07T18:26:41.597Z,4.57
2018-10-07T18:29:10.730Z,4.00
2018-10-07T18:31:40.264Z,4.27
2018-10-07T18:34:10.744Z,3.50
2018-10-07T18:36:40.163Z,3.50
2018-10-07T18:39:11.181Z,4.33
2018-10-07T18:41:40.921Z,3.80
2018-10-07T18:44:10.205Z,5.30
2018-10-07T18:46:40.343Z,4.70
2018-10-07T18:49:10.450Z,3.93
2018-10-07T18:51:39.594Z,4.30
2018-10-07T18:54:09.448Z,4.40
2018-10-07T18:56:38.412Z,5.70
2018-10-07T18:59:09.368Z,5.10
2018-10-07T19:01:38.342Z,6.10
2018-10-07T19:04:07.256Z,6.63
2018-10-07T19:06:35.862Z,5.33
2018-10-07T19:09:05.833Z,6.80
2018-10-07T19:11:34.216Z,7.50
2018-10-07T19:14:02.579Z,7.53
2018-10-07T19:16:31.810Z,6.90
2018-10-07T19:19:00.393Z,8.07
2018-10-07T19:21:28.761Z,6.50
2018-10-07T19:23:57.109Z,6.03
2018-10-07T19:26:25.442Z,5.43
2018-10-07T19:28:54.073Z,4.97
2018-10-07T19:31:22.795Z,4.23
2018-10-07T19:33:51.165Z,4.33
2018-10-07T19:36:19.788Z,4.90
2018-10-07T19:38:48.118Z,5.50
2018-10-07T19:41:16.493Z,5.03
2018-10-07T19:43:44.837Z,6.00
2018-10-07T19:46:13.169Z,5.87
2018-10-07T19:48:42.417Z,5.20
2018-10-07T19:51:11.762Z,5.33
2018-10-07T19:53:41.093Z,5.33
2018-10-07T19:56:10.306Z,5.47
2018-10-07T19:58:40.383Z,4.40
2018-10-07T20:01:11.086Z,5.00
2018-10-07T20:03:40.349Z,6.80
2018-10-07T20:06:10.276Z,6.70
2018-10-07T20:08:39.792Z,6.10
2018-10-07T20:11:10.269Z,7.73
2018-10-07T20:13:41.041Z,7.90
2018-10-07T20:16:10.234Z,9.77
2018-10-07T20:18:40.661Z,8.30
2018-10-07T20:21:09.772Z,8.13
2018-10-07T20:23:40.125Z,8.63
2018-10-07T20:26:10.196Z,8.40
2018-10-07T20:28:39.873Z,8.17
2018-10-07T20:31:10.081Z,7.57
2018-10-07T20:33:40.341Z,7.93
2018-10-07T20:36:11.891Z,8.20
2018-10-07T20:38:41.094Z,8.93
2018-10-07T20:41:10.522Z,9.10
2018-10-07T20:43:39.228Z,9.67
2018-10-07T20:46:08.794Z,8.57
2018-10-07T20:48:38.013Z,8.13
2018-10-07T20:51:07.837Z,7.50
2018-10-07T20:53:36.844Z,6.77
2018-10-07T20:56:05.227Z,6.63
2018-10-07T20:58:33.556Z,6.57
2018-10-07T21:01:01.885Z,7.57
2018-10-07T21:03:31.018Z,7.73
2018-10-07T21:05:59.357Z,8.57
2018-10-07T21:08:27.692Z,7.80
2018-10-07T21:10:56.041Z,7.80
2018-10-07T21:13:24.377Z,6.93
2018-10-07T21:15:52.724Z,9.10
2018-10-07T21:18:22.089Z,8.00
2018-10-07T21:20:51.441Z,9.03
2018-10-07T21:23:20.693Z,9.37
2018-10-07T21:25:49.072Z,9.93
2018-10-07T21:28:17.413Z,10.00
2018-10-07T21:30:45.750Z,9.33
2018-10-07T21:33:14.128Z,9.73
2018-10-07T21:35:43.381Z,9.80
2018-10-07T21:38:13.109Z,8.00
2018-10-07T21:40:41.986Z,7.93
2018-10-07T21:43:11.064Z,8.17
2018-10-07T21:45:40.814Z,7.90
2018-10-07T21:48:10.290Z,6.87
2018-10-07T21:50:41.308Z,6.73
2018-10-07T21:53:10.553Z,7.20
2018-10-07T21:55:38.885Z,6.57
2018-10-07T21:58:09.914Z,5.57
2018-10-07T22:00:40.358Z,5.40
2018-10-07T22:03:12.069Z,5.50
2018-10-07T22:05:42.617Z,5.50
2018-10-07T22:08:11.829Z,5.73
2018-10-07T22:10:42.281Z,5.77
2018-10-07T22:13:11.661Z,5.20
2018-10-07T22:15:41.117Z,5.20
2018-10-07T22:18:11.243Z,5.77
2018-10-07T22:20:41.262Z,5.40
2018-10-07T22:23:11.207Z,6.60
2018-10-07T22:25:41.220Z,4.40
2018-10-07T22:28:11.594Z,5.87
2018-10-07T22:30:40.857Z,5.67
2018-10-07T22:33:10.301Z,5.53
2018-10-07T22:35:41.254Z,5.37
2018-10-07T22:38:11.196Z,4.80
2018-10-07T22:40:41.908Z,5.67
2018-10-07T22:43:12.673Z,5.70
2018-10-07T22:45:41.939Z,4.43
2018-10-07T22:48:12.248Z,5.37
2018-10-07T22:50:43.053Z,5.97
2018-10-07T22:53:12.464Z,4.50
2018-10-07T22:55:43.285Z,6.10
2018-10-07T22:58:13.845Z,6.40
2018-10-07T23:00:43.236Z,7.27
2018-10-07T23:03:13.413Z,8.07
2018-10-07T23:05:43.981Z,7.80
2018-10-07T23:08:13.250Z,7.63
2018-10-07T23:10:43.358Z,7.87
2018-10-07T23:13:13.204Z,8.20
2018-10-07T23:15:43.704Z,6.30
2018-10-07T23:18:13.056Z,6.50
2018-10-07T23:20:42.402Z,6.03
2018-10-07T23:23:12.972Z,5.30
2018-10-07T23:25:42.321Z,7.40
2018-10-07T23:28:12.008Z,5.60
2018-10-07T23:30:42.380Z,5.90
2018-10-07T23:33:11.381Z,6.10
2018-10-07T23:35:41.165Z,5.53
2018-10-07T23:38:11.616Z,6.20
2018-10-07T23:40:43.074Z,5.53
2018-10-07T23:43:12.449Z,5.60
2018-10-07T23:45:43.161Z,6.77
2018-10-07T23:48:12.380Z,7.30
2018-10-07T23:50:41.981Z,7.67
2018-10-07T23:53:12.278Z,5.77
2018-10-07T23:55:42.242Z,5.57
2018-10-07T23:58:13.004Z,5.67
